Athens, Georgia
Current Conditions -  °F | °C
As of 4:51 PM on Monday 20 Oct 2014 (Local Time) from KAHN Reporting Station
Scattered Clouds Scattered Clouds  
Wind Chill: 22°   Ceiling: Unl
Heat Index: 22°   Visibility: 10mi
Dew Point: 10°   Wind: 5mph
Humidity: 47%   Direction: NA
Pressure: 30"   Gusts: NA
Location:  33.96°N, 83.37°W
Report Text: KAHN 202051Z VRB04KT 10SM SCT050 22/10 A3000 RMK AO2 SLP157 T02170100 56018
Loading
Personal Weather Stations






























Interactive Weather Map
Tropical Storm Tracking
New forecast layout! Learn more

10-Day Weather Forecast

Advertisements
Track Severe Weather on mobile